createdAt,value
2019-02-05T00:02:02.360Z,7.67
2019-02-05T00:04:32.754Z,8.70
2019-02-05T00:07:03.220Z,8.83
2019-02-05T00:09:33.642Z,7.97
2019-02-05T00:12:04.485Z,8.20
2019-02-05T00:14:34.834Z,8.27
2019-02-05T00:17:05.089Z,7.50
2019-02-05T00:19:35.386Z,8.50
2019-02-05T00:22:06.643Z,7.23
2019-02-05T00:24:37.008Z,8.30
2019-02-05T00:27:07.305Z,8.43
2019-02-05T00:29:37.600Z,6.67
2019-02-05T00:32:07.962Z,7.03
2019-02-05T00:34:38.372Z,6.97
2019-02-05T00:37:08.680Z,7.10
2019-02-05T00:39:39.414Z,7.30
2019-02-05T00:42:09.667Z,8.90
2019-02-05T00:44:40.029Z,7.10
2019-02-05T00:47:10.298Z,8.93
2019-02-05T00:49:40.648Z,7.80
2019-02-05T00:52:10.938Z,7.57
2019-02-05T00:54:41.303Z,7.37
2019-02-05T00:57:11.608Z,7.33
2019-02-05T00:59:41.984Z,7.97
2019-02-05T01:02:12.410Z,7.17
2019-02-05T01:04:42.800Z,7.60
2019-02-05T01:07:13.670Z,7.17
2019-02-05T01:09:44.047Z,7.53
2019-02-05T01:12:15.863Z,7.47
2019-02-05T01:14:46.207Z,8.50
2019-02-05T01:17:16.502Z,5.70
2019-02-05T01:19:47.312Z,8.77
2019-02-05T01:22:17.658Z,10.97
2019-02-05T01:24:48.026Z,7.30
2019-02-05T01:27:18.414Z,7.87
2019-02-05T01:29:48.761Z,6.93
2019-02-05T01:32:19.400Z,9.83
2019-02-05T01:34:49.768Z,7.93
2019-02-05T01:37:20.125Z,7.53
2019-02-05T01:39:50.489Z,7.00
2019-02-05T01:42:20.806Z,6.50
2019-02-05T01:44:51.116Z,5.70
2019-02-05T01:47:21.896Z,7.07
2019-02-05T01:49:52.202Z,7.83
2019-02-05T01:52:22.639Z,7.80
2019-02-05T01:54:52.880Z,5.67
2019-02-05T01:57:23.244Z,7.73
2019-02-05T01:59:54.044Z,6.27
2019-02-05T02:02:24.448Z,6.80
2019-02-05T02:04:54.756Z,5.47
2019-02-05T02:07:25.119Z,7.00
2019-02-05T02:09:56.754Z,6.53
2019-02-05T02:12:27.012Z,5.80
2019-02-05T02:14:57.663Z,8.00
2019-02-05T02:17:28.018Z,6.27
2019-02-05T02:19:58.353Z,6.50
2019-02-05T02:22:28.988Z,6.53
2019-02-05T02:24:59.264Z,10.13
2019-02-05T02:27:29.572Z,9.47
2019-02-05T02:29:59.842Z,5.90
2019-02-05T02:32:30.323Z,8.30
2019-02-05T02:35:00.703Z,7.90
2019-02-05T02:37:31.019Z,7.27
2019-02-05T02:40:01.330Z,8.50
2019-02-05T02:42:32.162Z,7.33
2019-02-05T02:45:02.536Z,7.73
2019-02-05T02:47:32.775Z,9.53
2019-02-05T02:50:03.101Z,9.10
2019-02-05T02:52:33.532Z,9.20
2019-02-05T02:55:05.011Z,9.00
2019-02-05T02:57:35.301Z,8.33
2019-02-05T03:00:08.553Z,10.67
2019-02-05T03:02:39.425Z,8.63
2019-02-05T03:05:11.712Z,8.33
2019-02-05T03:07:42.000Z,8.03
2019-02-05T03:10:15.828Z,10.03
2019-02-05T03:12:46.151Z,9.30
2019-02-05T03:15:16.888Z,9.23
2019-02-05T03:17:47.278Z,9.30
2019-02-05T03:20:18.706Z,10.07
2019-02-05T03:22:49.071Z,8.23
2019-02-05T03:25:21.107Z,7.80
2019-02-05T03:27:53.816Z,10.07
2019-02-05T03:30:23.743Z,10.23
2019-02-05T03:32:54.779Z,10.97
2019-02-05T03:35:25.546Z,8.73
2019-02-05T03:37:55.858Z,9.10
2019-02-05T03:41:10.662Z,10.07
2019-02-05T03:43:41.710Z,9.40
2019-02-05T03:46:14.257Z,10.30
2019-02-05T03:48:46.376Z,10.07
2019-02-05T03:51:44.968Z,11.33
2019-02-05T03:54:43.641Z,9.63
2019-02-05T03:57:49.735Z,9.27
2019-02-05T04:00:49.561Z,9.40
2019-02-05T04:04:11.011Z,9.37
2019-02-05T04:07:07.785Z,11.33
2019-02-05T04:10:28.293Z,10.07
2019-02-05T04:13:19.991Z,9.60
2019-02-05T04:16:25.053Z,8.47
2019-02-05T04:19:20.831Z,9.03
2019-02-05T04:22:17.397Z,10.97
2019-02-05T04:25:13.076Z,12.47
2019-02-05T04:28:01.973Z,9.77
2019-02-05T04:31:22.247Z,10.30
2019-02-05T04:34:36.191Z,11.33
2019-02-05T04:37:43.027Z,11.07
2019-02-05T04:40:49.797Z,9.97
2019-02-05T04:44:04.328Z,11.87
2019-02-05T04:47:07.897Z,14.40
2019-02-05T04:50:31.613Z,10.10
2019-02-05T04:53:51.693Z,12.60
2019-02-05T04:57:12.290Z,11.67
2019-02-05T05:00:29.377Z,11.73
2019-02-05T05:03:33.743Z,12.70
2019-02-05T05:06:20.987Z,12.17
2019-02-05T05:09:41.724Z,12.47
2019-02-05T05:12:12.073Z,12.23
2019-02-05T05:14:43.143Z,16.50
2019-02-05T05:17:13.464Z,13.47
2019-02-05T05:19:43.851Z,11.97
2019-02-05T05:22:14.201Z,11.83
2019-02-05T05:24:44.859Z,13.07
2019-02-05T05:27:16.705Z,14.87
2019-02-05T05:29:48.303Z,13.37
2019-02-05T05:32:19.503Z,12.90
2019-02-05T05:34:49.907Z,12.43
2019-02-05T05:37:18.591Z,14.33
2019-02-05T05:39:48.868Z,15.90
2019-02-05T05:42:19.234Z,16.27
2019-02-05T05:44:50.090Z,14.57
2019-02-05T05:47:20.468Z,17.87
2019-02-05T05:49:51.719Z,15.00
2019-02-05T05:52:22.945Z,16.47
2019-02-05T05:54:53.716Z,14.97
2019-02-05T05:57:24.127Z,16.73
2019-02-05T05:59:55.018Z,16.90
2019-02-05T06:02:25.387Z,15.73
2019-02-05T06:04:55.721Z,17.03
2019-02-05T06:07:26.042Z,15.90
2019-02-05T06:09:56.432Z,16.53
2019-02-05T06:12:26.829Z,18.97
2019-02-05T06:14:57.090Z,18.70
2019-02-05T06:17:27.375Z,18.43
2019-02-05T06:19:57.689Z,18.13
2019-02-05T06:22:28.040Z,18.53
2019-02-05T06:24:58.351Z,20.17
2019-02-05T06:27:29.052Z,21.23
2019-02-05T06:29:59.317Z,19.80
2019-02-05T06:32:29.735Z,21.63
2019-02-05T06:34:59.998Z,19.60
2019-02-05T06:37:30.235Z,23.27
2019-02-05T06:40:00.458Z,19.37
2019-02-05T06:42:31.314Z,20.43
2019-02-05T06:45:01.614Z,21.97
2019-02-05T06:47:31.742Z,20.07
2019-02-05T06:50:20.976Z,20.23
2019-02-05T06:52:51.450Z,21.17
2019-02-05T06:55:21.740Z,21.80
2019-02-05T06:57:52.448Z,20.50
2019-02-05T07:00:24.719Z,22.83
2019-02-05T07:02:55.487Z,21.23
2019-02-05T07:05:26.065Z,22.20
2019-02-05T07:07:57.282Z,21.60
2019-02-05T07:10:27.971Z,23.80
2019-02-05T07:12:58.456Z,27.57
2019-02-05T07:15:28.964Z,26.73
2019-02-05T07:17:59.447Z,22.43
2019-02-05T07:20:29.969Z,24.00
2019-02-05T07:23:00.623Z,21.20
2019-02-05T07:25:31.087Z,21.77
2019-02-05T07:28:01.403Z,24.10
2019-02-05T07:30:31.955Z,23.60
2019-02-05T07:33:02.996Z,26.80
2019-02-05T07:35:33.491Z,21.27
2019-02-05T07:38:03.896Z,22.60
2019-02-05T07:40:34.355Z,21.40
2019-02-05T07:43:05.293Z,23.27
2019-02-05T07:45:36.159Z,22.57
2019-02-05T07:48:06.907Z,20.50
2019-02-05T07:50:37.699Z,23.97
2019-02-05T07:53:08.846Z,24.10
2019-02-05T07:55:39.821Z,23.40
2019-02-05T07:58:10.659Z,24.60
2019-02-05T08:00:49.256Z,24.73
2019-02-05T08:03:20.083Z,26.77
2019-02-05T08:05:50.851Z,27.27
2019-02-05T08:08:24.235Z,27.73
2019-02-05T08:10:54.919Z,26.37
2019-02-05T08:13:25.542Z,26.73
2019-02-05T08:15:56.239Z,29.97
2019-02-05T08:18:26.954Z,32.13
2019-02-05T08:20:57.679Z,27.37
2019-02-05T08:23:28.700Z,30.33
2019-02-05T08:25:59.457Z,28.13
2019-02-05T08:28:40.416Z,27.87
2019-02-05T08:31:02.709Z,29.70
2019-02-05T08:33:33.397Z,27.57
2019-02-05T08:36:04.351Z,27.13
2019-02-05T08:38:34.846Z,28.47
2019-02-05T08:41:06.169Z,33.33
2019-02-05T08:43:36.917Z,29.07
2019-02-05T08:46:07.629Z,27.47
2019-02-05T08:48:38.211Z,35.47
2019-02-05T08:51:08.736Z,30.53
2019-02-05T08:53:39.139Z,30.83
2019-02-05T08:56:09.737Z,27.90
2019-02-05T08:58:40.353Z,28.80
2019-02-05T09:01:10.809Z,31.73
2019-02-05T09:03:41.384Z,30.57
2019-02-05T09:06:12.109Z,31.43
2019-02-05T09:08:42.725Z,33.90
2019-02-05T09:11:15.065Z,30.80
2019-02-05T09:13:45.717Z,29.80
2019-02-05T09:16:16.407Z,30.97
2019-02-05T09:18:46.973Z,31.10
2019-02-05T09:21:18.243Z,28.13
2019-02-05T09:23:51.809Z,30.70
2019-02-05T09:26:22.372Z,29.37
2019-02-05T09:28:53.126Z,29.93
2019-02-05T09:31:23.735Z,27.47
2019-02-05T09:33:54.283Z,30.07
2019-02-05T09:36:25.094Z,24.50
2019-02-05T09:38:55.518Z,25.33
2019-02-05T09:41:26.477Z,24.17
2019-02-05T09:43:57.090Z,25.33
2019-02-05T09:46:27.564Z,23.07
2019-02-05T09:48:58.003Z,23.10
2019-02-05T09:51:28.622Z,23.50
2019-02-05T09:53:58.875Z,26.03
2019-02-05T09:56:29.544Z,25.37
2019-02-05T09:59:00.004Z,26.30
2019-02-05T10:01:30.808Z,22.83
2019-02-05T10:04:01.411Z,22.40
2019-02-05T10:06:32.021Z,23.90
2019-02-05T10:09:02.584Z,22.73
2019-02-05T10:11:33.287Z,23.17
2019-02-05T10:14:03.829Z,24.20
2019-02-05T10:16:34.596Z,21.90
2019-02-05T10:19:05.209Z,21.70
2019-02-05T10:21:35.747Z,23.10
2019-02-05T10:24:06.330Z,23.77
2019-02-05T10:26:36.988Z,22.07
2019-02-05T10:29:07.698Z,20.37
2019-02-05T10:31:38.226Z,21.13
2019-02-05T10:34:08.751Z,23.40
2019-02-05T10:36:39.092Z,25.17
2019-02-05T10:39:12.088Z,24.30
2019-02-05T10:41:42.755Z,18.97
2019-02-05T10:44:13.314Z,24.23
2019-02-05T10:46:43.747Z,21.97
2019-02-05T10:49:15.014Z,22.00
2019-02-05T10:51:45.481Z,21.13
2019-02-05T10:54:16.043Z,23.30
2019-02-05T10:56:46.622Z,20.80
2019-02-05T10:59:17.248Z,21.50
2019-02-05T11:01:47.903Z,23.00
2019-02-05T11:04:18.857Z,20.67
2019-02-05T11:06:49.578Z,20.77
2019-02-05T11:09:20.200Z,20.13
2019-02-05T11:11:51.152Z,18.63
2019-02-05T11:14:21.650Z,20.37
2019-02-05T11:16:55.269Z,18.50
2019-02-05T11:19:25.912Z,24.67
2019-02-05T11:21:56.353Z,22.10
2019-02-05T11:24:27.069Z,23.73
2019-02-05T11:26:57.552Z,23.13
2019-02-05T11:29:28.144Z,21.40
2019-02-05T11:31:58.748Z,25.40
2019-02-05T11:34:29.308Z,20.83
2019-02-05T11:36:59.988Z,23.17
2019-02-05T11:39:30.492Z,24.27
2019-02-05T11:42:04.006Z,24.60
2019-02-05T11:44:36.994Z,24.80
2019-02-05T11:47:08.074Z,26.40
2019-02-05T11:49:38.827Z,26.13
2019-02-05T11:52:09.914Z,24.23
2019-02-05T11:54:43.232Z,27.40
2019-02-05T11:57:13.796Z,26.73
2019-02-05T11:59:46.483Z,23.43
2019-02-05T12:02:17.043Z,25.47
2019-02-05T12:04:47.647Z,26.23
2019-02-05T12:07:38.604Z,25.07
2019-02-05T12:10:10.929Z,28.80
2019-02-05T12:12:41.427Z,27.33
2019-02-05T12:15:13.001Z,26.77
2019-02-05T12:17:43.422Z,30.37
2019-02-05T12:20:14.846Z,27.47
2019-02-05T12:22:45.896Z,26.20
2019-02-05T12:25:17.343Z,24.77
2019-02-05T12:27:48.509Z,30.20
2019-02-05T12:30:27.594Z,30.33
2019-02-05T12:32:58.058Z,27.43
2019-02-05T12:35:30.216Z,31.17
2019-02-05T12:38:01.817Z,27.37
2019-02-05T12:40:32.293Z,26.93
2019-02-05T12:43:03.540Z,23.90
2019-02-05T12:45:35.153Z,23.90
2019-02-05T12:48:08.017Z,22.97
2019-02-05T12:50:38.860Z,25.87
2019-02-05T12:53:10.006Z,27.43
2019-02-05T12:55:40.538Z,29.27
2019-02-05T12:58:11.077Z,31.57
2019-02-05T13:00:55.885Z,28.37
2019-02-05T13:03:16.412Z,28.73
2019-02-05T13:05:47.398Z,27.30
2019-02-05T13:08:18.394Z,29.83
2019-02-05T13:10:51.523Z,29.17
2019-02-05T13:13:22.313Z,26.57
2019-02-05T13:15:52.701Z,26.43
2019-02-05T13:18:23.471Z,25.93
2019-02-05T13:20:53.878Z,29.13
2019-02-05T13:23:24.475Z,27.77
2019-02-05T13:25:55.032Z,27.37
2019-02-05T13:28:25.478Z,26.87
2019-02-05T13:31:07.373Z,26.60
2019-02-05T13:33:27.956Z,27.43
2019-02-05T13:35:58.422Z,29.50
2019-02-05T13:38:28.832Z,25.67
2019-02-05T13:40:59.328Z,27.13
2019-02-05T13:43:29.910Z,27.10
2019-02-05T13:46:00.569Z,27.27
2019-02-05T13:48:31.136Z,23.03
2019-02-05T13:51:02.998Z,24.40
2019-02-05T13:53:33.469Z,25.30
2019-02-05T13:56:05.325Z,25.23
2019-02-05T13:58:35.927Z,26.43
2019-02-05T14:01:06.979Z,27.20
2019-02-05T14:03:37.321Z,27.83
2019-02-05T14:06:08.177Z,23.10
2019-02-05T14:08:38.832Z,26.47
2019-02-05T14:11:09.423Z,25.57
2019-02-05T14:13:40.219Z,28.93
2019-02-05T14:16:10.861Z,28.63
2019-02-05T14:18:41.400Z,29.77
2019-02-05T14:21:12.068Z,25.40
2019-02-05T14:23:43.683Z,28.70
2019-02-05T14:26:14.699Z,28.30
2019-02-05T14:28:45.155Z,30.93
2019-02-05T14:31:15.590Z,31.83
2019-02-05T14:33:47.224Z,30.83
2019-02-05T14:36:17.703Z,31.43
2019-02-05T14:38:48.464Z,29.57
2019-02-05T14:41:18.833Z,30.43
2019-02-05T14:43:49.397Z,29.27
2019-02-05T14:46:20.169Z,28.80
2019-02-05T14:48:50.631Z,31.70
2019-02-05T14:51:21.274Z,31.27
2019-02-05T14:53:52.026Z,32.57
2019-02-05T14:56:22.396Z,33.40
2019-02-05T14:58:52.986Z,33.47
2019-02-05T15:01:24.537Z,35.87
2019-02-05T15:03:55.129Z,32.07
2019-02-05T15:06:25.831Z,32.50
2019-02-05T15:08:56.272Z,31.73
2019-02-05T15:11:26.667Z,35.37
2019-02-05T15:13:57.124Z,29.73
2019-02-05T15:16:27.546Z,33.20
2019-02-05T15:18:58.795Z,35.57
2019-02-05T15:21:29.344Z,37.13
2019-02-05T15:23:59.931Z,35.17
2019-02-05T15:26:30.414Z,35.00
2019-02-05T15:29:00.771Z,36.63
2019-02-05T15:31:31.357Z,35.27
2019-02-05T15:34:23.689Z,35.33
2019-02-05T15:36:54.046Z,34.30
2019-02-05T15:39:26.136Z,34.50
2019-02-05T15:41:59.937Z,31.70
2019-02-05T15:44:30.241Z,36.53
2019-02-05T15:47:00.539Z,38.17
2019-02-05T15:49:30.817Z,35.63
2019-02-05T15:52:01.057Z,39.40
2019-02-05T15:54:31.339Z,38.73
2019-02-05T15:57:01.500Z,35.90
2019-02-05T15:59:31.786Z,37.63
2019-02-05T16:02:06.366Z,39.63
2019-02-05T16:04:35.041Z,36.27
2019-02-05T16:07:05.585Z,34.03
2019-02-05T16:09:35.846Z,35.20
2019-02-05T16:12:06.035Z,30.77
2019-02-05T16:14:36.307Z,35.97
2019-02-05T16:17:06.615Z,38.77
2019-02-05T16:19:36.801Z,39.77
2019-02-05T16:22:07.103Z,39.23
2019-02-05T16:24:37.345Z,40.73
2019-02-05T16:27:07.631Z,35.37
2019-02-05T16:29:37.907Z,35.67
2019-02-05T16:32:17.295Z,39.73
2019-02-05T16:34:40.021Z,38.50
2019-02-05T16:37:11.132Z,38.97
2019-02-05T16:39:41.407Z,35.17
2019-02-05T16:42:11.949Z,34.97
2019-02-05T16:44:42.339Z,35.97
2019-02-05T16:47:12.726Z,35.33
2019-02-05T16:49:43.015Z,38.50
2019-02-05T16:52:13.347Z,41.37
2019-02-05T16:54:44.106Z,35.93
2019-02-05T16:57:14.371Z,36.47
2019-02-05T16:59:44.651Z,39.70
2019-02-05T17:02:14.941Z,33.97
2019-02-05T17:04:45.470Z,40.03
2019-02-05T17:07:15.875Z,37.40
2019-02-05T17:09:46.245Z,39.70
2019-02-05T17:12:17.107Z,39.53
2019-02-05T17:14:47.695Z,39.67
2019-02-05T17:17:20.776Z,34.77
2019-02-05T17:19:50.477Z,34.93
2019-02-05T17:22:20.933Z,38.43
2019-02-05T17:24:51.345Z,36.93
2019-02-05T17:27:22.028Z,34.93
2019-02-05T17:29:52.525Z,39.43
2019-02-05T17:32:23.157Z,38.83
2019-02-05T17:34:53.777Z,34.77
2019-02-05T17:37:24.349Z,37.60
2019-02-05T17:39:54.837Z,45.03
2019-02-05T17:42:25.178Z,35.70
2019-02-05T17:44:56.106Z,32.57
2019-02-05T17:47:26.851Z,32.93
2019-02-05T17:49:57.250Z,41.33
2019-02-05T17:52:27.600Z,29.73
2019-02-05T17:54:57.979Z,39.47
2019-02-05T17:57:28.334Z,34.87
2019-02-05T17:59:59.039Z,31.67
2019-02-05T18:02:29.693Z,32.63
2019-02-05T18:05:00.330Z,30.50
2019-02-05T18:07:31.151Z,36.23
2019-02-05T18:10:01.833Z,29.33
2019-02-05T18:12:33.346Z,27.53
2019-02-05T18:15:04.334Z,25.07
2019-02-05T18:17:34.953Z,27.30
2019-02-05T18:20:07.562Z,25.13
2019-02-05T18:22:38.042Z,26.33
2019-02-05T18:25:10.947Z,25.93
2019-02-05T18:27:41.635Z,30.33
2019-02-05T18:30:30.141Z,22.50
2019-02-05T18:33:03.657Z,24.47
2019-02-05T18:35:32.803Z,24.53
2019-02-05T18:38:03.522Z,23.83
2019-02-05T18:40:33.954Z,25.27
2019-02-05T18:43:04.976Z,25.47
2019-02-05T18:45:35.774Z,24.10
2019-02-05T18:48:06.900Z,23.53
2019-02-05T18:50:40.752Z,24.60
2019-02-05T18:53:11.978Z,25.97
2019-02-05T18:55:42.625Z,24.90
2019-02-05T18:58:13.351Z,22.17
2019-02-05T19:00:44.322Z,27.03
2019-02-05T19:03:16.272Z,25.90
2019-02-05T19:05:47.174Z,26.00
2019-02-05T19:08:17.552Z,27.93
2019-02-05T19:10:47.942Z,27.13
2019-02-05T19:13:19.679Z,28.63
2019-02-05T19:15:50.570Z,26.90
2019-02-05T19:18:23.009Z,29.50
2019-02-05T19:20:53.446Z,30.47
2019-02-05T19:23:23.856Z,30.70
2019-02-05T19:26:08.892Z,28.10
2019-02-05T19:28:41.047Z,27.03
2019-02-05T19:31:26.521Z,27.70
2019-02-05T19:33:56.883Z,28.83
2019-02-05T19:36:27.864Z,30.80
2019-02-05T19:38:58.338Z,29.63
2019-02-05T19:41:28.750Z,32.20
2019-02-05T19:44:01.519Z,27.43
2019-02-05T19:47:06.076Z,31.93
2019-02-05T19:49:45.471Z,28.93
2019-02-05T19:52:16.026Z,25.70
2019-02-05T19:54:46.627Z,31.27
2019-02-05T19:57:17.366Z,38.10
2019-02-05T19:59:48.317Z,32.43
2019-02-05T20:02:18.719Z,31.57
2019-02-05T20:04:51.421Z,33.00
2019-02-05T20:07:21.846Z,33.70
2019-02-05T20:09:52.225Z,35.37
2019-02-05T20:12:26.074Z,35.60
2019-02-05T20:14:55.538Z,36.63
2019-02-05T20:17:30.762Z,30.70
2019-02-05T20:20:02.591Z,27.77
2019-02-05T20:22:34.115Z,36.67
2019-02-05T20:25:05.094Z,43.93
2019-02-05T20:27:35.506Z,36.37
2019-02-05T20:30:06.527Z,36.50
2019-02-05T20:32:37.359Z,34.30
2019-02-05T20:35:08.562Z,36.37
2019-02-05T20:37:38.992Z,30.90
2019-02-05T20:40:12.983Z,36.30
2019-02-05T20:42:43.448Z,33.90
2019-02-05T20:45:13.958Z,34.53
2019-02-05T20:47:45.026Z,34.27
2019-02-05T20:50:15.980Z,33.37
2019-02-05T20:52:46.692Z,33.90
2019-02-05T20:55:17.516Z,34.73
2019-02-05T20:57:48.014Z,37.53
2019-02-05T21:00:20.284Z,34.13
2019-02-05T21:02:50.683Z,36.93
2019-02-05T21:05:24.536Z,37.57
2019-02-05T21:07:55.037Z,41.03
2019-02-05T21:10:25.417Z,34.13
2019-02-05T21:12:55.881Z,38.37
2019-02-05T21:15:26.512Z,36.70
2019-02-05T21:17:57.552Z,36.50
2019-02-05T21:20:31.365Z,38.40
2019-02-05T21:23:00.566Z,39.77
2019-02-05T21:25:30.941Z,44.70
2019-02-05T21:28:01.383Z,36.97
2019-02-05T21:30:32.002Z,40.17
2019-02-05T21:33:02.467Z,44.73
2019-02-05T21:35:32.952Z,42.77
2019-02-05T21:38:03.728Z,42.30
2019-02-05T21:40:34.063Z,45.50
2019-02-05T21:43:04.914Z,41.70
2019-02-05T21:45:35.474Z,40.90
2019-02-05T21:48:06.325Z,44.23
2019-02-05T21:50:36.665Z,44.60
2019-02-05T21:53:07.353Z,40.93
2019-02-05T21:55:37.771Z,43.10
2019-02-05T21:58:08.126Z,42.30
2019-02-05T22:00:38.611Z,45.53
2019-02-05T22:03:08.959Z,48.00
2019-02-05T22:05:39.374Z,44.27
2019-02-05T22:08:09.851Z,48.03
2019-02-05T22:10:43.637Z,44.97
2019-02-05T22:13:14.030Z,45.40
2019-02-05T22:15:44.435Z,40.50
2019-02-05T22:18:14.875Z,40.50
2019-02-05T22:20:45.269Z,43.33
2019-02-05T22:23:16.001Z,43.37
2019-02-05T22:25:46.435Z,44.13
2019-02-05T22:28:16.871Z,48.40
2019-02-05T22:30:47.824Z,47.13
2019-02-05T22:33:18.165Z,44.97
2019-02-05T22:35:48.420Z,43.20
2019-02-05T22:38:18.893Z,49.00
2019-02-05T22:40:49.288Z,50.20
2019-02-05T22:43:20.006Z,44.33
2019-02-05T22:45:50.462Z,44.73
2019-02-05T22:48:21.017Z,50.80
2019-02-05T22:50:51.414Z,53.13
2019-02-05T22:53:21.811Z,52.03
2019-02-05T22:55:53.431Z,49.00
2019-02-05T22:58:24.293Z,51.13
2019-02-05T23:01:44.540Z,52.50
2019-02-05T23:04:56.025Z,55.07
2019-02-05T23:07:28.361Z,52.20
2019-02-05T23:10:44.219Z,53.27
2019-02-05T23:13:17.570Z,51.27
2019-02-05T23:15:50.015Z,52.70
2019-02-05T23:18:21.307Z,51.83
2019-02-05T23:20:53.910Z,51.33
2019-02-05T23:23:24.266Z,52.73
2019-02-05T23:25:54.730Z,57.57
2019-02-05T23:28:26.425Z,54.70
2019-02-05T23:30:58.164Z,55.13
2019-02-05T23:33:28.808Z,55.67
2019-02-05T23:35:59.260Z,56.60
2019-02-05T23:38:31.249Z,52.33
2019-02-05T23:41:01.876Z,53.97
2019-02-05T23:43:34.038Z,56.90
2019-02-05T23:46:04.846Z,53.33
2019-02-05T23:48:35.640Z,59.37
2019-02-05T23:51:06.334Z,52.30
2019-02-05T23:53:37.970Z,54.97
2019-02-05T23:56:08.486Z,55.17
2019-02-05T23:58:38.789Z,55.23
